createdAt,value
2022-08-28T00:00:46.963Z,29.95
2022-08-28T00:02:03.527Z,29.95
2022-08-28T00:03:19.898Z,29.94
2022-08-28T00:04:36.616Z,29.95
2022-08-28T00:05:53.049Z,29.95
2022-08-28T00:07:09.520Z,29.94
2022-08-28T00:08:25.899Z,29.95
2022-08-28T00:09:44.274Z,29.95
2022-08-28T00:11:00.981Z,29.94
2022-08-28T00:12:17.394Z,29.94
2022-08-28T00:13:33.761Z,29.94
2022-08-28T00:14:50.142Z,29.94
2022-08-28T00:16:06.560Z,29.94
2022-08-28T00:17:23.280Z,29.95
2022-08-28T00:18:39.629Z,29.94
2022-08-28T00:19:56.015Z,29.94
2022-08-28T00:21:12.539Z,29.94
2022-08-28T00:22:28.987Z,29.94
2022-08-28T00:23:45.630Z,29.93
2022-08-28T00:25:02.104Z,29.94
2022-08-28T00:26:18.496Z,29.94
2022-08-28T00:27:34.909Z,29.94
2022-08-28T00:28:51.288Z,29.94
2022-08-28T00:30:08.023Z,29.94
2022-08-28T00:31:24.440Z,29.93
2022-08-28T00:32:40.829Z,29.93
2022-08-28T00:33:57.220Z,29.93
2022-08-28T00:35:13.600Z,29.94
2022-08-28T00:36:31.115Z,29.93
2022-08-28T00:37:48.225Z,29.94
2022-08-28T00:39:04.653Z,29.93
2022-08-28T00:40:28.600Z,29.93
2022-08-28T00:41:42.296Z,29.94
2022-08-28T00:42:59.051Z,29.93
2022-08-28T00:44:15.415Z,29.94
2022-08-28T00:45:34.835Z,29.92
2022-08-28T00:46:53.066Z,29.92
2022-08-28T00:48:09.476Z,29.92
2022-08-28T00:49:26.198Z,29.93
2022-08-28T00:50:42.629Z,29.92
2022-08-28T00:51:58.998Z,29.93
2022-08-28T00:53:15.388Z,29.92
2022-08-28T00:54:31.741Z,29.93
2022-08-28T00:55:48.450Z,29.92
2022-08-28T00:57:04.812Z,29.93
2022-08-28T00:58:21.213Z,29.93
2022-08-28T00:59:37.622Z,29.92
2022-08-28T01:00:54.052Z,29.92
2022-08-28T01:02:10.724Z,29.92
2022-08-28T01:03:27.541Z,29.92
2022-08-28T01:04:43.904Z,29.93
2022-08-28T01:06:00.332Z,29.92
2022-08-28T01:07:16.696Z,29.92
2022-08-28T01:08:33.368Z,29.92
2022-08-28T01:09:50.586Z,29.92
2022-08-28T01:11:07.027Z,29.93
2022-08-28T01:12:23.397Z,29.92
2022-08-28T01:13:39.817Z,29.92
2022-08-28T01:14:56.248Z,29.91
2022-08-28T01:16:12.711Z,29.93
2022-08-28T01:17:29.072Z,29.92
2022-08-28T01:18:45.508Z,29.92
2022-08-28T01:20:01.926Z,29.92
2022-08-28T01:21:20.368Z,29.91
2022-08-28T01:22:37.052Z,29.92
2022-08-28T01:23:53.452Z,29.91
2022-08-28T01:25:09.864Z,29.91
2022-08-28T01:26:26.253Z,29.91
2022-08-28T01:27:42.961Z,29.91
2022-08-28T01:28:59.343Z,29.92
2022-08-28T01:30:15.739Z,29.92
2022-08-28T01:31:32.156Z,29.91
2022-08-28T01:32:48.501Z,29.91
2022-08-28T01:34:05.165Z,29.91
2022-08-28T01:35:21.557Z,29.91
2022-08-28T01:36:37.948Z,29.91
2022-08-28T01:37:54.349Z,29.92
2022-08-28T01:39:10.761Z,29.92
2022-08-28T01:40:27.475Z,29.92
2022-08-28T01:41:43.840Z,29.91
2022-08-28T01:43:00.211Z,29.91
2022-08-28T01:44:17.980Z,29.91
2022-08-28T01:45:34.652Z,29.91
2022-08-28T01:46:51.337Z,29.91
2022-08-28T01:48:08.747Z,29.91
2022-08-28T01:49:25.133Z,29.92
2022-08-28T01:50:41.504Z,29.91
2022-08-28T01:51:57.927Z,29.91
2022-08-28T01:53:14.606Z,29.91
2022-08-28T01:54:31.186Z,29.91
2022-08-28T01:55:48.557Z,29.91
2022-08-28T01:57:04.928Z,29.91
2022-08-28T01:58:21.409Z,29.90
2022-08-28T01:59:38.058Z,29.91
2022-08-28T02:00:57.420Z,29.91
2022-08-28T02:02:13.781Z,29.90
2022-08-28T02:03:30.213Z,29.90
2022-08-28T02:04:48.325Z,29.91
2022-08-28T02:06:05.092Z,29.90
2022-08-28T02:07:21.463Z,29.91
2022-08-28T02:08:37.891Z,29.91
2022-08-28T02:09:54.268Z,29.91
2022-08-28T02:11:10.653Z,29.90
2022-08-28T02:12:27.315Z,29.89
2022-08-28T02:13:43.735Z,29.91
2022-08-28T02:15:00.146Z,29.89
2022-08-28T02:16:16.565Z,29.89
2022-08-28T02:17:32.917Z,29.90
2022-08-28T02:18:49.617Z,29.89
2022-08-28T02:20:06.009Z,29.89
2022-08-28T02:21:24.348Z,29.90
2022-08-28T02:22:40.727Z,29.90
2022-08-28T02:23:57.249Z,29.89
2022-08-28T02:25:14.042Z,29.90
2022-08-28T02:26:30.420Z,29.90
2022-08-28T02:27:46.792Z,29.89
2022-08-28T02:29:03.174Z,29.89
2022-08-28T02:30:19.589Z,29.89
2022-08-28T02:31:36.242Z,29.89
2022-08-28T02:32:52.607Z,29.89
2022-08-28T02:34:08.995Z,29.89
2022-08-28T02:35:26.347Z,29.89
2022-08-28T02:36:42.714Z,29.89
2022-08-28T02:38:00.563Z,29.88
2022-08-28T02:39:16.979Z,29.89
2022-08-28T02:40:33.398Z,29.89
2022-08-28T02:41:49.965Z,29.89
2022-08-28T02:43:06.329Z,29.89
2022-08-28T02:44:23.008Z,29.88
2022-08-28T02:45:39.381Z,29.89
2022-08-28T02:46:57.819Z,29.89
2022-08-28T02:48:16.931Z,29.88
2022-08-28T02:49:35.571Z,29.89
2022-08-28T02:50:53.090Z,29.89
2022-08-28T02:52:09.529Z,29.89
2022-08-28T02:53:25.912Z,29.88
2022-08-28T02:54:42.302Z,29.88
2022-08-28T02:55:58.675Z,29.88
2022-08-28T02:57:15.365Z,29.88
2022-08-28T02:58:31.745Z,29.87
2022-08-28T02:59:48.135Z,29.87
2022-08-28T03:01:04.521Z,29.87
2022-08-28T03:02:20.944Z,29.88
2022-08-28T03:03:37.576Z,29.88
2022-08-28T03:04:57.338Z,29.89
2022-08-28T03:06:13.710Z,29.87
2022-08-28T03:07:30.128Z,29.88
2022-08-28T03:08:46.500Z,29.89
2022-08-28T03:10:03.169Z,29.87
2022-08-28T03:11:19.571Z,29.88
2022-08-28T03:12:35.992Z,29.88
2022-08-28T03:13:52.361Z,29.87
2022-08-28T03:15:08.739Z,29.89
2022-08-28T03:16:25.438Z,29.87
2022-08-28T03:17:41.910Z,29.88
2022-08-28T03:18:58.325Z,29.88
2022-08-28T03:20:14.752Z,29.87
2022-08-28T03:21:31.155Z,29.86
2022-08-28T03:22:47.814Z,29.86
2022-08-28T03:24:04.184Z,29.87
2022-08-28T03:25:20.605Z,29.86
2022-08-28T03:26:36.976Z,29.87
2022-08-28T03:27:53.382Z,29.87
2022-08-28T03:29:10.048Z,29.86
2022-08-28T03:30:26.482Z,29.87
2022-08-28T03:31:42.829Z,29.86
2022-08-28T03:32:59.219Z,29.86
2022-08-28T03:34:15.580Z,29.86
2022-08-28T03:35:32.278Z,29.86
2022-08-28T03:36:48.641Z,29.86
2022-08-28T03:38:05.023Z,29.86
2022-08-28T03:39:21.393Z,29.86
2022-08-28T03:40:37.910Z,29.86
2022-08-28T03:41:54.593Z,29.86
2022-08-28T03:43:11.063Z,29.86
2022-08-28T03:44:27.445Z,29.86
2022-08-28T03:45:43.901Z,29.85
2022-08-28T03:47:00.256Z,29.85
2022-08-28T03:48:16.916Z,29.86
2022-08-28T03:49:33.289Z,29.86
2022-08-28T03:50:49.698Z,29.86
2022-08-28T03:52:08.208Z,29.85
2022-08-28T03:53:24.589Z,29.86
2022-08-28T03:54:41.249Z,29.85
2022-08-28T03:55:58.509Z,29.85
2022-08-28T03:57:14.881Z,29.85
2022-08-28T03:58:31.270Z,29.85
2022-08-28T03:59:47.642Z,29.85
2022-08-28T04:01:04.421Z,29.85
2022-08-28T04:02:20.798Z,29.84
2022-08-28T04:03:37.237Z,29.84
2022-08-28T04:04:53.625Z,29.85
2022-08-28T04:06:10.037Z,29.85
2022-08-28T04:07:26.696Z,29.84
2022-08-28T04:08:43.086Z,29.85
2022-08-28T04:09:59.445Z,29.85
2022-08-28T04:11:15.864Z,29.85
2022-08-28T04:12:35.220Z,29.85
2022-08-28T04:13:52.137Z,29.84
2022-08-28T04:15:08.498Z,29.84
2022-08-28T04:16:24.953Z,29.85
2022-08-28T04:17:41.329Z,29.85
2022-08-28T04:18:57.710Z,29.84
2022-08-28T04:20:14.380Z,29.84
2022-08-28T04:21:30.772Z,29.84
2022-08-28T04:22:47.131Z,29.84
2022-08-28T04:24:06.703Z,29.84
2022-08-28T04:25:24.763Z,29.84
2022-08-28T04:26:41.963Z,29.84
2022-08-28T04:27:58.383Z,29.84
2022-08-28T04:29:14.776Z,29.84
2022-08-28T04:30:31.156Z,29.84
2022-08-28T04:31:47.580Z,29.84
2022-08-28T04:33:04.246Z,29.84
2022-08-28T04:34:20.635Z,29.84
2022-08-28T04:35:37.007Z,29.83
2022-08-28T04:36:53.410Z,29.83
2022-08-28T04:38:09.920Z,29.84
2022-08-28T04:39:26.579Z,29.84
2022-08-28T04:40:42.949Z,29.83
2022-08-28T04:41:59.331Z,29.83
2022-08-28T04:43:15.731Z,29.82
2022-08-28T04:44:32.121Z,29.83
2022-08-28T04:45:48.771Z,29.83
2022-08-28T04:47:05.149Z,29.83
2022-08-28T04:48:22.683Z,29.84
2022-08-28T04:49:39.074Z,29.83
2022-08-28T04:50:55.485Z,29.83
2022-08-28T04:52:13.206Z,29.83
2022-08-28T04:53:29.594Z,29.83
2022-08-28T04:54:46.933Z,29.84
2022-08-28T04:56:03.307Z,29.83
2022-08-28T04:57:19.717Z,29.82
2022-08-28T04:58:36.380Z,29.83
2022-08-28T04:59:52.810Z,29.82
2022-08-28T05:01:09.209Z,29.82
2022-08-28T05:02:25.690Z,29.82
2022-08-28T05:03:42.140Z,29.82
2022-08-28T05:04:58.809Z,29.82
2022-08-28T05:06:15.190Z,29.82
2022-08-28T05:07:31.581Z,29.82
2022-08-28T05:08:47.982Z,29.82
2022-08-28T05:10:04.380Z,29.81
2022-08-28T05:11:32.880Z,29.82
2022-08-28T05:12:42.353Z,29.81
2022-08-28T05:13:58.751Z,29.82
2022-08-28T05:15:15.145Z,29.82
2022-08-28T05:16:31.581Z,29.82
2022-08-28T05:17:48.286Z,29.82
2022-08-28T05:19:04.714Z,29.82
2022-08-28T05:20:21.146Z,29.82
2022-08-28T05:21:37.517Z,29.82
2022-08-28T05:22:53.900Z,29.81
2022-08-28T05:24:10.275Z,29.81
2022-08-28T05:25:26.970Z,29.81
2022-08-28T05:26:43.339Z,29.82
2022-08-28T05:27:59.721Z,29.81
2022-08-28T05:29:16.091Z,29.81
2022-08-28T05:30:32.521Z,29.81
2022-08-28T05:31:49.831Z,29.82
2022-08-28T05:33:06.193Z,29.80
2022-08-28T05:34:22.566Z,29.81
2022-08-28T05:35:38.992Z,29.81
2022-08-28T05:36:55.365Z,29.81
2022-08-28T05:38:12.199Z,29.82
2022-08-28T05:39:28.634Z,29.81
2022-08-28T05:40:45.063Z,29.81
2022-08-28T05:42:01.586Z,29.82
2022-08-28T05:43:17.974Z,29.81
2022-08-28T05:44:34.657Z,29.81
2022-08-28T05:45:53.022Z,29.81
2022-08-28T05:47:09.407Z,29.82
2022-08-28T05:48:25.798Z,29.82
2022-08-28T05:49:46.769Z,29.81
2022-08-28T05:51:03.459Z,29.81
2022-08-28T05:52:19.830Z,29.81
2022-08-28T05:53:36.232Z,29.79
2022-08-28T05:54:54.583Z,29.80
2022-08-28T05:56:10.962Z,29.81
2022-08-28T05:57:27.605Z,29.81
2022-08-28T05:58:44.003Z,29.81
2022-08-28T06:00:00.416Z,29.80
2022-08-28T06:01:18.764Z,29.81
2022-08-28T06:02:35.137Z,29.81
2022-08-28T06:03:51.877Z,29.81
2022-08-28T06:05:08.227Z,29.82
2022-08-28T06:06:26.567Z,29.81
2022-08-28T06:07:42.949Z,29.81
2022-08-28T06:09:01.379Z,29.81
2022-08-28T06:10:18.038Z,29.81
2022-08-28T06:11:35.571Z,29.81
2022-08-28T06:12:51.989Z,29.81
2022-08-28T06:14:10.340Z,29.81
2022-08-28T06:15:28.684Z,29.81
2022-08-28T06:16:45.362Z,29.81
2022-08-28T06:18:03.730Z,29.80
2022-08-28T06:19:20.123Z,29.82
2022-08-28T06:20:36.483Z,29.81
2022-08-28T06:21:52.925Z,29.80
2022-08-28T06:23:09.584Z,29.80
2022-08-28T06:24:27.936Z,29.81
2022-08-28T06:25:49.375Z,29.80
2022-08-28T06:27:05.756Z,29.80
2022-08-28T06:28:22.148Z,29.81
2022-08-28T06:29:38.795Z,29.81
2022-08-28T06:31:23.426Z,29.81
2022-08-28T06:32:18.418Z,29.80
2022-08-28T06:33:34.818Z,29.81
2022-08-28T06:34:53.148Z,29.80
2022-08-28T06:36:09.859Z,29.81
2022-08-28T06:37:26.230Z,29.81
2022-08-28T06:38:42.620Z,29.81
2022-08-28T06:39:59.064Z,29.81
2022-08-28T06:41:15.610Z,29.81
2022-08-28T06:42:32.396Z,29.80
2022-08-28T06:43:48.822Z,29.81
2022-08-28T06:45:05.204Z,29.81
2022-08-28T06:46:21.754Z,29.81
2022-08-28T06:47:38.217Z,29.80
2022-08-28T06:48:54.968Z,29.80
2022-08-28T06:50:11.326Z,29.80
2022-08-28T06:51:28.045Z,29.81
2022-08-28T06:52:44.448Z,29.80
2022-08-28T06:54:02.797Z,29.81
2022-08-28T06:55:19.469Z,29.80
2022-08-28T06:56:37.844Z,29.81
2022-08-28T06:57:54.218Z,29.81
2022-08-28T06:59:12.569Z,29.79
2022-08-28T07:00:30.911Z,29.81
2022-08-28T07:01:49.762Z,29.80
2022-08-28T07:03:06.261Z,29.81
2022-08-28T07:04:22.661Z,29.80
2022-08-28T07:05:39.066Z,29.80
2022-08-28T07:06:55.521Z,29.80
2022-08-28T07:08:12.364Z,29.80
2022-08-28T07:09:30.764Z,29.80
2022-08-28T07:10:47.134Z,29.81
2022-08-28T07:12:03.556Z,29.80
2022-08-28T07:13:21.904Z,29.80
2022-08-28T07:14:38.586Z,29.81
2022-08-28T07:15:55.063Z,29.80
2022-08-28T07:17:11.505Z,29.81
2022-08-28T07:18:27.877Z,29.80
2022-08-28T07:19:44.326Z,29.80
2022-08-28T07:21:01.008Z,29.80
2022-08-28T07:22:17.387Z,29.81
2022-08-28T07:23:35.783Z,29.80
2022-08-28T07:24:52.288Z,29.81
2022-08-28T07:26:10.619Z,29.81
2022-08-28T07:27:27.293Z,29.80
2022-08-28T07:28:43.681Z,29.81
2022-08-28T07:30:03.908Z,29.81
2022-08-28T07:31:20.340Z,29.82
2022-08-28T07:32:38.675Z,29.81
2022-08-28T07:33:55.584Z,29.81
2022-08-28T07:35:12.025Z,29.80
2022-08-28T07:36:29.044Z,29.81
2022-08-28T07:37:47.855Z,29.81
2022-08-28T07:39:06.186Z,29.82
2022-08-28T07:40:22.942Z,29.81
2022-08-28T07:41:39.503Z,29.81
2022-08-28T07:42:56.059Z,29.82
2022-08-28T07:44:12.458Z,29.82
2022-08-28T07:45:28.943Z,29.81
2022-08-28T07:46:47.569Z,29.81
2022-08-28T07:48:10.698Z,29.81
2022-08-28T07:49:28.211Z,29.82
2022-08-28T07:50:44.674Z,29.82
2022-08-28T07:52:01.084Z,29.82
2022-08-28T07:53:17.774Z,29.83
2022-08-28T07:54:35.493Z,29.83
2022-08-28T07:55:51.983Z,29.83
2022-08-28T07:57:08.366Z,29.83
2022-08-28T07:58:24.765Z,29.82
2022-08-28T07:59:42.230Z,29.83
2022-08-28T08:00:58.724Z,29.83
2022-08-28T08:02:17.058Z,29.82
2022-08-28T08:03:35.502Z,29.83
2022-08-28T08:04:53.846Z,29.83
2022-08-28T08:06:10.239Z,29.84
2022-08-28T08:07:28.568Z,29.84
2022-08-28T08:08:46.930Z,29.85
2022-08-28T08:10:05.259Z,29.84
2022-08-28T08:11:22.312Z,29.84
2022-08-28T08:12:42.269Z,29.84
2022-08-28T08:13:58.791Z,29.85
2022-08-28T08:15:15.434Z,29.85
2022-08-28T08:16:31.824Z,29.85
2022-08-28T08:17:50.544Z,29.85
2022-08-28T08:19:06.935Z,29.85
2022-08-28T08:20:24.236Z,29.85
2022-08-28T08:21:42.596Z,29.85
2022-08-28T08:23:00.916Z,29.85
2022-08-28T08:24:19.750Z,29.85
2022-08-28T08:25:36.398Z,29.87
2022-08-28T08:26:59.410Z,29.85
2022-08-28T08:28:17.918Z,29.85
2022-08-28T08:29:36.288Z,29.85
2022-08-28T08:30:54.454Z,29.85
2022-08-28T08:32:10.909Z,29.85
2022-08-28T08:33:27.282Z,29.85
2022-08-28T08:34:45.708Z,29.86
2022-08-28T08:36:02.101Z,29.86
2022-08-28T08:37:20.822Z,29.86
2022-08-28T08:38:39.154Z,29.86
2022-08-28T08:39:57.528Z,29.85
2022-08-28T08:41:15.884Z,29.86
2022-08-28T08:42:32.307Z,29.88
2022-08-28T08:43:48.974Z,29.87
2022-08-28T08:45:05.366Z,29.86
2022-08-28T08:46:23.759Z,29.87
2022-08-28T08:47:40.208Z,29.87
2022-08-28T08:48:56.580Z,29.88
2022-08-28T08:50:13.248Z,29.88
2022-08-28T08:51:29.619Z,29.89
2022-08-28T08:52:48.019Z,29.88
2022-08-28T08:54:06.368Z,29.88
2022-08-28T08:55:22.761Z,29.88
2022-08-28T08:56:39.441Z,29.89
2022-08-28T08:57:55.981Z,29.88
2022-08-28T08:59:14.373Z,29.90
2022-08-28T09:00:30.801Z,29.91
2022-08-28T09:01:49.236Z,29.90
2022-08-28T09:03:07.963Z,29.90
2022-08-28T09:04:25.538Z,29.90
2022-08-28T09:05:42.492Z,29.92
2022-08-28T09:07:00.866Z,29.90
2022-08-28T09:08:19.287Z,29.90
2022-08-28T09:09:36.954Z,29.92
2022-08-28T09:10:53.451Z,29.91
2022-08-28T09:12:11.787Z,29.91
2022-08-28T09:13:28.221Z,29.92
2022-08-28T09:14:44.605Z,29.91
2022-08-28T09:16:01.315Z,29.92
2022-08-28T09:17:19.629Z,29.91
2022-08-28T09:18:38.439Z,29.93
2022-08-28T09:19:56.851Z,29.93
2022-08-28T09:21:15.192Z,29.93
2022-08-28T09:22:31.862Z,29.93
2022-08-28T09:23:50.242Z,29.94
2022-08-28T09:25:09.016Z,29.93
2022-08-28T09:26:25.765Z,29.94
2022-08-28T09:27:44.184Z,29.94
2022-08-28T09:29:02.844Z,29.94
2022-08-28T09:30:21.175Z,29.95
2022-08-28T09:31:39.525Z,29.94
2022-08-28T09:32:57.857Z,29.94
2022-08-28T09:34:14.477Z,29.95
2022-08-28T09:35:31.177Z,29.95
2022-08-28T09:36:49.520Z,29.95
2022-08-28T09:38:07.857Z,29.95
2022-08-28T09:39:26.229Z,29.96
2022-08-28T09:40:42.655Z,29.95
2022-08-28T09:41:59.350Z,29.95
2022-08-28T09:43:17.681Z,29.96
2022-08-28T09:44:34.153Z,29.96
2022-08-28T09:45:52.515Z,29.97
2022-08-28T09:47:10.912Z,29.97
2022-08-28T09:48:27.564Z,29.97
2022-08-28T09:49:44.045Z,29.97
2022-08-28T09:51:00.422Z,29.98
2022-08-28T09:52:23.054Z,29.98
2022-08-28T09:53:42.055Z,29.97
2022-08-28T09:55:02.284Z,29.99
2022-08-28T09:56:21.155Z,29.99
2022-08-28T09:57:37.677Z,30.00
2022-08-28T09:58:56.062Z,30.00
2022-08-28T10:00:12.485Z,30.01
2022-08-28T10:01:29.213Z,30.01
2022-08-28T10:02:45.649Z,30.01
2022-08-28T10:04:02.185Z,30.02
2022-08-28T10:05:20.551Z,30.03
2022-08-28T10:06:43.788Z,30.03
2022-08-28T10:08:02.421Z,30.02
2022-08-28T10:09:20.767Z,30.03
2022-08-28T10:10:39.114Z,30.03
2022-08-28T10:11:55.504Z,30.03
2022-08-28T10:13:13.944Z,30.03
2022-08-28T10:14:30.610Z,30.03
2022-08-28T10:15:47.123Z,30.04
2022-08-28T10:17:03.504Z,30.04
2022-08-28T10:18:21.876Z,30.04
2022-08-28T10:19:38.257Z,30.05
2022-08-28T10:20:56.877Z,30.04
2022-08-28T10:22:13.256Z,30.04
2022-08-28T10:23:31.729Z,30.04
2022-08-28T10:24:48.095Z,30.04
2022-08-28T10:26:06.530Z,30.04
2022-08-28T10:27:23.325Z,30.05
2022-08-28T10:28:41.741Z,30.06
2022-08-28T10:30:03.042Z,30.05
2022-08-28T10:31:20.846Z,30.06
2022-08-28T10:32:38.283Z,30.06
2022-08-28T10:33:55.013Z,30.07
2022-08-28T10:35:13.364Z,30.07
2022-08-28T10:36:34.538Z,30.06
2022-08-28T10:37:53.414Z,30.07
2022-08-28T10:39:09.826Z,30.07
2022-08-28T10:40:29.029Z,30.08
2022-08-28T10:41:47.362Z,30.08
2022-08-28T10:43:05.691Z,30.09
2022-08-28T10:44:24.080Z,30.09
2022-08-28T10:45:40.509Z,30.09
2022-08-28T10:46:58.242Z,30.09
2022-08-28T10:48:16.711Z,30.10
2022-08-28T10:49:33.323Z,30.10
2022-08-28T10:50:49.805Z,30.10
2022-08-28T10:52:06.293Z,30.10
2022-08-28T10:53:23.007Z,30.10
2022-08-28T10:54:41.396Z,30.10
2022-08-28T10:56:00.779Z,30.10
2022-08-28T10:57:17.281Z,30.10
2022-08-28T10:58:33.718Z,30.11
2022-08-28T10:59:50.524Z,30.11
2022-08-28T11:01:07.178Z,30.11
2022-08-28T11:02:25.515Z,30.12
2022-08-28T11:03:42.615Z,30.12
2022-08-28T11:04:59.152Z,30.12
2022-08-28T11:06:17.914Z,30.13
2022-08-28T11:07:36.279Z,30.13
2022-08-28T11:08:54.628Z,30.13
2022-08-28T11:10:12.061Z,30.13
2022-08-28T11:11:28.556Z,30.13
2022-08-28T11:12:44.918Z,30.13
2022-08-28T11:14:01.396Z,30.13
2022-08-28T11:15:19.769Z,30.13
2022-08-28T11:16:38.242Z,30.13
2022-08-28T11:17:57.934Z,30.15
2022-08-28T11:19:16.335Z,30.14
2022-08-28T11:20:34.713Z,30.13
2022-08-28T11:21:53.065Z,30.15
2022-08-28T11:23:09.856Z,30.15
2022-08-28T11:24:29.235Z,30.15
2022-08-28T11:25:46.680Z,30.15
2022-08-28T11:27:04.302Z,30.14
2022-08-28T11:28:21.682Z,30.14
2022-08-28T11:29:40.935Z,30.14
2022-08-28T11:30:57.370Z,30.15
2022-08-28T11:32:17.430Z,30.15
2022-08-28T11:33:33.918Z,30.15
2022-08-28T11:34:52.348Z,30.15
2022-08-28T11:36:10.710Z,30.16
2022-08-28T11:37:29.065Z,30.16
2022-08-28T11:38:45.473Z,30.16
2022-08-28T11:40:03.855Z,30.17
2022-08-28T11:41:20.294Z,30.16
2022-08-28T11:42:39.053Z,30.16
2022-08-28T11:43:55.492Z,30.16
2022-08-28T11:45:13.844Z,30.16
2022-08-28T11:46:32.217Z,30.17
2022-08-28T11:47:50.557Z,30.18
2022-08-28T11:49:09.211Z,30.17
2022-08-28T11:50:27.559Z,30.17
2022-08-28T11:51:45.889Z,30.18
2022-08-28T11:53:04.231Z,30.17
2022-08-28T11:54:22.608Z,30.18
2022-08-28T11:55:41.233Z,30.18
2022-08-28T11:56:59.588Z,30.18
2022-08-28T11:59:48.671Z,30.16
2022-08-28T12:01:07.012Z,30.16
2022-08-28T12:02:25.745Z,30.17
2022-08-28T12:03:44.084Z,30.18
2022-08-28T12:05:00.567Z,30.17
2022-08-28T12:06:17.054Z,30.18
2022-08-28T12:07:34.564Z,30.20
2022-08-28T12:08:55.127Z,30.19
2022-08-28T12:10:13.485Z,30.19
2022-08-28T12:11:31.886Z,30.19
2022-08-28T12:12:52.597Z,30.19
2022-08-28T12:14:11.068Z,30.19
2022-08-28T12:15:29.771Z,30.20
2022-08-28T12:16:46.329Z,30.20
2022-08-28T12:18:03.885Z,30.21
2022-08-28T12:19:22.305Z,30.20
2022-08-28T12:20:40.705Z,30.22
2022-08-28T12:21:57.572Z,30.21
2022-08-28T12:23:15.916Z,30.21
2022-08-28T12:24:34.276Z,30.21
2022-08-28T12:25:52.822Z,30.22
2022-08-28T12:27:11.206Z,30.22
2022-08-28T12:28:29.850Z,30.22
2022-08-28T12:29:48.186Z,30.21
2022-08-28T12:31:06.607Z,30.22
2022-08-28T12:32:24.968Z,30.21
2022-08-28T12:33:41.359Z,30.24
2022-08-28T12:34:58.053Z,30.24
2022-08-28T12:36:14.478Z,30.23
2022-08-28T12:37:36.846Z,30.24
2022-08-28T12:38:54.572Z,30.24
2022-08-28T12:40:11.044Z,30.24
2022-08-28T12:41:27.792Z,30.24
2022-08-28T12:42:46.730Z,30.22
2022-08-28T12:44:05.050Z,30.23
2022-08-28T12:45:21.602Z,30.24
2022-08-28T12:46:40.047Z,30.23
2022-08-28T12:47:56.721Z,30.24
2022-08-28T12:49:13.281Z,30.24
2022-08-28T12:50:31.209Z,30.24
2022-08-28T12:51:47.595Z,30.24
2022-08-28T12:53:04.107Z,30.24
2022-08-28T12:54:20.919Z,30.23
2022-08-28T12:55:39.311Z,30.24
2022-08-28T12:56:57.680Z,30.24
2022-08-28T12:58:16.028Z,30.24
2022-08-28T12:59:32.526Z,30.24
2022-08-28T13:00:49.343Z,30.24
2022-08-28T13:02:07.814Z,30.24
2022-08-28T13:03:26.190Z,30.25
2022-08-28T13:04:44.522Z,30.24
2022-08-28T13:06:02.911Z,30.25
2022-08-28T13:07:19.635Z,30.25
2022-08-28T13:08:37.976Z,30.26
2022-08-28T13:09:56.334Z,30.26
2022-08-28T13:11:17.115Z,30.26
2022-08-28T13:12:37.782Z,30.25
2022-08-28T13:13:56.740Z,30.25
2022-08-28T13:15:15.142Z,30.25
2022-08-28T13:16:36.431Z,30.26
2022-08-28T13:17:54.795Z,30.26
2022-08-28T13:19:13.150Z,30.25
2022-08-28T13:20:29.864Z,30.25
2022-08-28T13:21:48.224Z,30.26
2022-08-28T13:23:06.558Z,30.26
2022-08-28T13:24:23.128Z,30.27
2022-08-28T13:25:40.429Z,30.27
2022-08-28T13:26:58.823Z,30.26
2022-08-28T13:28:17.172Z,30.26
2022-08-28T13:29:33.623Z,30.27
2022-08-28T13:30:50.090Z,30.27
2022-08-28T13:32:06.742Z,30.27
2022-08-28T13:33:23.121Z,30.26
2022-08-28T13:34:47.741Z,30.28
2022-08-28T13:36:04.720Z,30.28
2022-08-28T13:37:22.115Z,30.27
2022-08-28T13:38:40.717Z,30.28
2022-08-28T13:39:59.144Z,30.28
2022-08-28T13:41:17.566Z,30.28
2022-08-28T13:42:35.948Z,30.28
2022-08-28T13:43:54.309Z,30.29
2022-08-28T13:45:13.010Z,30.28
2022-08-28T13:46:30.508Z,30.28
2022-08-28T13:47:46.912Z,30.28
2022-08-28T13:49:07.282Z,30.30
2022-08-28T13:50:25.677Z,30.29
2022-08-28T13:51:42.445Z,30.28
2022-08-28T13:53:00.971Z,30.29
2022-08-28T13:54:19.347Z,30.28
2022-08-28T13:55:38.280Z,30.28
2022-08-28T13:56:56.680Z,30.30
2022-08-28T13:58:15.441Z,30.30
2022-08-28T13:59:31.976Z,30.31
2022-08-28T14:00:48.524Z,30.31
2022-08-28T14:02:05.032Z,30.29
2022-08-28T14:03:23.389Z,30.30
2022-08-28T14:04:42.057Z,30.31
2022-08-28T14:05:58.506Z,30.30
2022-08-28T14:07:14.989Z,30.30
2022-08-28T14:08:33.369Z,30.31
2022-08-28T14:09:56.292Z,30.31
2022-08-28T14:11:15.211Z,30.29
2022-08-28T14:12:33.337Z,30.31
2022-08-28T14:13:55.650Z,30.28
2022-08-28T14:15:12.441Z,30.31
2022-08-28T14:16:31.219Z,30.31
2022-08-28T14:17:49.541Z,30.31
2022-08-28T14:19:05.945Z,30.31
2022-08-28T14:20:24.458Z,30.32
2022-08-28T14:21:42.892Z,30.31
2022-08-28T14:22:59.680Z,30.31
2022-08-28T14:24:16.139Z,30.31
2022-08-28T14:25:38.490Z,30.32
2022-08-28T14:26:54.776Z,30.32
2022-08-28T14:28:13.106Z,30.33
2022-08-28T14:29:29.846Z,30.32
2022-08-28T14:30:48.262Z,30.32
2022-08-28T14:32:06.661Z,30.33
2022-08-28T14:33:25.051Z,30.32
2022-08-28T14:34:41.484Z,30.33
2022-08-28T14:36:00.193Z,30.33
2022-08-28T14:37:16.602Z,30.34
2022-08-28T14:38:34.931Z,30.33
2022-08-28T14:39:53.878Z,30.34
2022-08-28T14:41:12.199Z,30.35
2022-08-28T14:42:28.855Z,30.34
2022-08-28T14:43:47.195Z,30.35
2022-08-28T14:45:03.757Z,30.35
2022-08-28T14:46:22.180Z,30.35
2022-08-28T14:47:40.586Z,30.35
2022-08-28T14:48:57.274Z,30.35
2022-08-28T14:50:15.615Z,30.35
2022-08-28T14:51:32.067Z,30.35
2022-08-28T14:52:50.663Z,30.35
2022-08-28T14:54:07.140Z,30.35
2022-08-28T14:55:24.000Z,30.35
2022-08-28T14:56:42.359Z,30.36
2022-08-28T14:58:00.764Z,30.35
2022-08-28T14:59:23.848Z,30.36
2022-08-28T15:00:40.445Z,30.36
2022-08-28T15:01:59.063Z,30.36
2022-08-28T15:03:17.570Z,30.36
2022-08-28T15:04:35.903Z,30.37
2022-08-28T15:05:54.255Z,30.36
2022-08-28T15:07:12.625Z,30.37
2022-08-28T15:08:29.295Z,30.36
2022-08-28T15:09:45.717Z,30.37
2022-08-28T15:11:02.158Z,30.38
2022-08-28T15:12:20.498Z,30.38
2022-08-28T15:13:39.000Z,30.38
2022-08-28T15:14:57.244Z,30.36
2022-08-28T15:16:18.862Z,30.37
2022-08-28T15:17:35.340Z,30.38
2022-08-28T15:18:54.217Z,30.37
2022-08-28T15:20:12.582Z,30.37
2022-08-28T15:21:31.200Z,30.36
2022-08-28T15:22:49.552Z,30.37
2022-08-28T15:24:07.913Z,30.37
2022-08-28T15:25:26.272Z,30.38
2022-08-28T15:26:42.665Z,30.36
2022-08-28T15:27:59.354Z,30.38
2022-08-28T15:29:17.735Z,30.38
2022-08-28T15:30:36.057Z,30.38
2022-08-28T15:31:52.543Z,30.38
2022-08-28T15:33:10.896Z,30.37
2022-08-28T15:34:27.628Z,30.38
2022-08-28T15:35:46.577Z,30.39
2022-08-28T15:37:07.730Z,30.38
2022-08-28T15:38:26.248Z,30.39
2022-08-28T15:39:42.678Z,30.38
2022-08-28T15:40:59.397Z,30.39
2022-08-28T15:42:17.760Z,30.38
2022-08-28T15:43:36.111Z,30.40
2022-08-28T15:44:52.532Z,30.40
2022-08-28T15:46:10.950Z,30.38
2022-08-28T15:47:31.882Z,30.40
2022-08-28T15:48:48.331Z,30.39
2022-08-28T15:50:07.354Z,30.39
2022-08-28T15:51:31.645Z,30.39
2022-08-28T15:52:50.200Z,30.40
2022-08-28T15:54:09.785Z,30.40
2022-08-28T15:55:28.136Z,30.40
2022-08-28T15:56:44.527Z,30.41
2022-08-28T15:58:01.607Z,30.41
2022-08-28T15:59:19.998Z,30.39
2022-08-28T16:00:38.374Z,30.41
2022-08-28T16:01:54.801Z,30.40
2022-08-28T16:03:13.244Z,30.40
2022-08-28T16:04:31.959Z,30.41
2022-08-28T16:05:50.289Z,30.40
2022-08-28T16:07:06.702Z,30.42
2022-08-28T16:08:25.041Z,30.40
2022-08-28T16:09:43.428Z,30.42
2022-08-28T16:11:00.147Z,30.41
2022-08-28T16:12:18.505Z,30.40
2022-08-28T16:13:36.866Z,30.41
2022-08-28T16:14:53.321Z,30.42
2022-08-28T16:16:09.748Z,30.41
2022-08-28T16:17:26.474Z,30.41
2022-08-28T16:18:42.905Z,30.42
2022-08-28T16:20:01.248Z,30.42
2022-08-28T16:21:19.590Z,30.42
2022-08-28T16:22:37.932Z,30.42
2022-08-28T16:23:54.648Z,30.42
2022-08-28T16:25:12.999Z,30.42
2022-08-28T16:26:31.340Z,30.42
2022-08-28T16:27:49.681Z,30.42
2022-08-28T16:29:08.501Z,30.42
2022-08-28T16:30:25.597Z,30.42
2022-08-28T16:31:43.972Z,30.42
2022-08-28T16:33:02.353Z,30.43
2022-08-28T16:34:20.855Z,30.42
2022-08-28T16:35:39.196Z,30.41
2022-08-28T16:37:01.023Z,30.41
2022-08-28T16:38:19.365Z,30.43